Time;durP1;ratioP1;P1;durP2;ratioP2;P2;SDS_P1;SDS_P2;PMS_P1;PMS_P2;Temp;Humidity;BMP_temperature;BMP_pressure;BME280_temperature;BME280_humidity;BME280_pressure;Samples;Min_cycle;Max_cycle;Signal;HPM_P1;HPM_P2
2022/04/28 00:00:24;;;;;;;;;;;18.90;77.40;;;;;;5052657;28;19970;-72
2022/04/28 00:02:50;;;;;;;;;;;18.80;77.80;;;;;;5052367;28;20412;-70
2022/04/28 00:05:16;;;;;;;;;;;18.80;77.00;;;;;;5052938;28;19948;-72
2022/04/28 00:07:42;;;;;;;;;;;18.80;76.90;;;;;;5053217;28;19913;-71
2022/04/28 00:10:09;;;;;;;;;;;18.80;76.20;;;;;;5052777;28;20368;-72
2022/04/28 00:12:35;;;;;;;;;;;18.80;76.50;;;;;;5051697;28;20293;-70
2022/04/28 00:15:01;;;;;;;;;;;18.90;76.60;;;;;;5052815;28;19999;-70
2022/04/28 00:17:27;;;;;;;;;;;18.80;76.80;;;;;;5052734;28;19955;-72
2022/04/28 00:19:53;;;;;;;;;;;18.80;77.00;;;;;;5052556;28;19913;-71
2022/04/28 00:22:53;;;;;;;;;;;18.80;76.60;;;;;;5052547;28;19975;-71
2022/04/28 00:25:20;;;;;;;;;;;18.80;75.90;;;;;;5052709;28;19956;-70
2022/04/28 00:27:46;;;;;;;;;;;18.80;75.40;;;;;;5052256;28;20049;-71
2022/04/28 00:30:12;;;;;;;;;;;18.80;75.80;;;;;;5052611;28;20455;-71
2022/04/28 00:32:38;;;;;;;;;;;18.80;76.20;;;;;;5052589;28;19913;-71
2022/04/28 00:35:04;;;;;;;;;;;18.70;77.70;;;;;;5052023;28;19919;-69
2022/04/28 00:37:30;;;;;;;;;;;18.60;78.10;;;;;;5052589;28;20013;-71
2022/04/28 00:39:56;;;;;;;;;;;18.60;78.60;;;;;;5049709;28;19963;-72
2022/04/28 00:42:22;;;;;;;;;;;18.60;79.30;;;;;;5052281;28;20044;-71
2022/04/28 00:44:47;;;;;;;;;;;18.50;79.60;;;;;;5050563;28;19915;-70
2022/04/28 00:47:14;;;;;;;;;;;18.50;80.40;;;;;;5052177;28;20288;-71
2022/04/28 00:52:24;;;;;;;;;;;18.40;81.40;;;;;;5051824;28;20430;-72
2022/04/28 00:54:54;;;;;;;;;;;18.30;81.60;;;;;;5052013;28;20261;-70
2022/04/28 00:57:20;;;;;;;;;;;18.30;82.10;;;;;;5051788;28;19908;-70
2022/04/28 00:59:47;;;;;;;;;;;18.20;82.30;;;;;;5051782;28;20288;-71
2022/04/28 01:02:13;;;;;;;;;;;18.20;83.40;;;;;;5051754;28;19962;-71
2022/04/28 01:04:39;;;;;;;;;;;18.20;84.30;;;;;;5052017;28;19909;-71
2022/04/28 01:07:05;;;;;;;;;;;18.30;85.00;;;;;;5051749;28;19932;-72
2022/04/28 01:09:36;;;;;;;;;;;18.30;86.00;;;;;;5051923;28;19920;-71
2022/04/28 01:12:10;;;;;;;;;;;18.30;86.30;;;;;;5050028;28;19912;-71
2022/04/28 01:14:36;;;;;;;;;;;18.30;86.70;;;;;;5051643;28;19916;-71
2022/04/28 01:17:02;;;;;;;;;;;18.30;86.80;;;;;;5051530;28;19909;-71
2022/04/28 01:19:28;;;;;;;;;;;18.30;84.50;;;;;;5049985;28;19958;-70
2022/04/28 01:21:55;;;;;;;;;;;18.30;83.50;;;;;;5051255;28;19958;-71
2022/04/28 01:24:21;;;;;;;;;;;18.10;82.80;;;;;;5051682;28;19954;-70
2022/04/28 01:26:48;;;;;;;;;;;18.10;82.20;;;;;;5050551;28;20225;-71
2022/04/28 01:29:14;;;;;;;;;;;18.00;82.50;;;;;;5045077;28;20017;-69
2022/04/28 01:31:40;;;;;;;;;;;18.00;84.00;;;;;;5027382;28;19921;-72
2022/04/28 01:34:05;;;;;;;;;;;18.00;84.70;;;;;;5048133;28;20410;-71
2022/04/28 01:36:31;;;;;;;;;;;18.10;84.10;;;;;;5045657;28;19927;-69
2022/04/28 01:38:57;;;;;;;;;;;18.10;88.10;;;;;;5045399;28;20354;-70
2022/04/28 01:41:23;;;;;;;;;;;18.20;90.80;;;;;;5045504;28;19932;-71
2022/04/28 01:43:49;;;;;;;;;;;18.20;92.30;;;;;;5048981;28;20000;-69
2022/04/28 01:46:15;;;;;;;;;;;18.20;92.70;;;;;;5050475;28;19955;-70
2022/04/28 01:48:41;;;;;;;;;;;18.20;93.20;;;;;;5051378;28;20395;-71
2022/04/28 01:56:35;;;;;;;;;;;18.30;94.50;;;;;;5050901;28;20379;-70
2022/04/28 01:59:00;;;;;;;;;;;18.40;95.10;;;;;;5049517;28;19909;-71
2022/04/28 02:01:26;;;;;;;;;;;18.30;95.50;;;;;;5050483;28;19909;-71
2022/04/28 02:03:52;;;;;;;;;;;18.30;95.70;;;;;;5050949;28;19924;-71
2022/04/28 02:06:18;;;;;;;;;;;18.30;95.80;;;;;;5051136;28;19928;-71
2022/04/28 02:08:45;;;;;;;;;;;18.20;96.00;;;;;;5050924;28;20371;-70
2022/04/28 02:11:11;;;;;;;;;;;18.10;96.30;;;;;;5050976;28;19932;-70
2022/04/28 02:13:36;;;;;;;;;;;18.10;96.50;;;;;;5051007;28;20384;-70
2022/04/28 02:16:02;;;;;;;;;;;18.10;96.50;;;;;;5049205;28;20317;-71
2022/04/28 02:18:28;;;;;;;;;;;18.00;96.50;;;;;;5050684;28;19935;-71
2022/04/28 02:20:54;;;;;;;;;;;18.00;96.50;;;;;;5050718;28;19964;-70
2022/04/28 02:23:20;;;;;;;;;;;18.00;96.40;;;;;;5049219;28;19916;-71
2022/04/28 02:25:46;;;;;;;;;;;18.00;96.10;;;;;;5050949;28;19948;-72
2022/04/28 02:28:12;;;;;;;;;;;18.00;96.00;;;;;;5041235;28;20348;-69
2022/04/28 02:30:40;;;;;;;;;;;18.10;95.90;;;;;;5049330;28;19969;-70
2022/04/28 02:33:09;;;;;;;;;;;18.10;95.80;;;;;;5044875;28;19948;-68
2022/04/28 02:35:35;;;;;;;;;;;18.10;95.60;;;;;;5040498;28;19913;-70
2022/04/28 02:38:01;;;;;;;;;;;18.10;94.70;;;;;;5043165;28;19932;-69
2022/04/28 02:40:27;;;;;;;;;;;18.00;94.20;;;;;;5024024;28;19914;-68
2022/04/28 02:42:53;;;;;;;;;;;18.00;94.00;;;;;;5045206;28;19920;-71
2022/04/28 02:45:19;;;;;;;;;;;18.00;93.90;;;;;;5043550;28;19909;-72
2022/04/28 02:47:45;;;;;;;;;;;18.00;93.70;;;;;;5047630;28;19963;-72
2022/04/28 02:50:13;;;;;;;;;;;18.00;93.70;;;;;;5036492;28;19917;-71
2022/04/28 02:52:39;;;;;;;;;;;17.90;93.60;;;;;;5030524;28;19909;-71
2022/04/28 02:55:06;;;;;;;;;;;17.90;92.60;;;;;;5030149;28;19910;-72
2022/04/28 02:57:32;;;;;;;;;;;17.80;92.30;;;;;;5030464;28;19910;-72
2022/04/28 02:59:58;;;;;;;;;;;17.80;92.30;;;;;;5030716;28;19995;-71
2022/04/28 03:02:24;;;;;;;;;;;17.80;92.30;;;;;;5030996;28;19950;-72
2022/04/28 03:04:49;;;;;;;;;;;17.80;92.20;;;;;;5030721;28;19953;-72
2022/04/28 03:10:46;;;;;;;;;;;17.90;91.90;;;;;;4997624;28;19917;-71
2022/04/28 03:13:12;;;;;;;;;;;17.90;91.60;;;;;;5032453;28;19909;-71
2022/04/28 03:15:39;;;;;;;;;;;17.90;91.80;;;;;;5034573;28;19916;-73
2022/04/28 03:18:05;;;;;;;;;;;17.90;91.90;;;;;;5016483;28;20272;-71
2022/04/28 03:20:31;;;;;;;;;;;17.90;91.80;;;;;;5034708;28;20302;-71
2022/04/28 03:22:56;;;;;;;;;;;17.90;92.40;;;;;;5016388;28;19910;-71
2022/04/28 03:25:22;;;;;;;;;;;17.90;92.10;;;;;;5017367;28;20282;-71
2022/04/28 03:27:50;;;;;;;;;;;17.90;92.20;;;;;;5034823;28;19917;-71
2022/04/28 03:30:15;;;;;;;;;;;17.90;92.00;;;;;;5034752;28;19909;-71
2022/04/28 03:32:42;;;;;;;;;;;17.90;92.10;;;;;;5034809;28;20265;-70
2022/04/28 03:35:10;;;;;;;;;;;17.90;91.70;;;;;;5034891;28;19979;-72
2022/04/28 03:37:37;;;;;;;;;;;17.90;91.40;;;;;;5035166;28;20373;-71
2022/04/28 03:40:03;;;;;;;;;;;17.80;91.80;;;;;;5034815;28;19909;-71
2022/04/28 03:42:29;;;;;;;;;;;17.80;91.60;;;;;;5034570;28;19909;-72
2022/04/28 03:44:55;;;;;;;;;;;17.80;91.50;;;;;;5034624;28;19916;-72
2022/04/28 03:47:21;;;;;;;;;;;17.80;91.10;;;;;;5034658;28;20321;-71
2022/04/28 03:49:47;;;;;;;;;;;17.80;90.90;;;;;;5034091;28;19913;-70
2022/04/28 03:52:13;;;;;;;;;;;17.80;90.50;;;;;;5034702;28;19909;-71
2022/04/28 03:54:38;;;;;;;;;;;17.70;90.20;;;;;;5034453;28;19913;-70
2022/04/28 03:57:04;;;;;;;;;;;17.70;90.10;;;;;;5034230;28;20324;-70
2022/04/28 03:59:30;;;;;;;;;;;17.70;89.90;;;;;;5034128;28;19915;-71
2022/04/28 04:01:56;;;;;;;;;;;17.80;90.90;;;;;;5016359;28;19910;-71
2022/04/28 04:04:22;;;;;;;;;;;17.80;90.80;;;;;;5034423;28;19963;-72
2022/04/28 04:06:48;;;;;;;;;;;17.70;91.00;;;;;;5033997;28;19945;-71
2022/04/28 04:09:14;;;;;;;;;;;17.60;90.80;;;;;;5034345;28;19923;-71
2022/04/28 04:11:39;;;;;;;;;;;17.60;90.30;;;;;;5034117;28;19999;-70
2022/04/28 04:14:05;;;;;;;;;;;17.60;91.80;;;;;;5033992;28;19909;-70
2022/04/28 04:16:31;;;;;;;;;;;17.50;91.70;;;;;;5034526;28;19909;-70
2022/04/28 04:18:57;;;;;;;;;;;17.50;90.40;;;;;;5034723;28;19910;-70
2022/04/28 04:21:24;;;;;;;;;;;17.30;89.80;;;;;;5034946;28;19955;-70
2022/04/28 04:23:51;;;;;;;;;;;17.20;89.50;;;;;;5034945;28;20429;-69
2022/04/28 04:26:17;;;;;;;;;;;17.20;89.80;;;;;;5034735;28;19910;-70
2022/04/28 04:28:44;;;;;;;;;;;17.10;89.70;;;;;;5034526;28;19939;-70
2022/04/28 04:33:54;;;;;;;;;;;17.00;90.30;;;;;;5034549;28;19940;-68
2022/04/28 04:36:20;;;;;;;;;;;17.00;90.80;;;;;;5034134;28;19921;-71
2022/04/28 04:38:46;;;;;;;;;;;16.90;90.60;;;;;;5034858;28;20331;-70
2022/04/28 04:41:12;;;;;;;;;;;16.90;90.50;;;;;;5034301;28;19916;-71
2022/04/28 04:43:40;;;;;;;;;;;16.90;90.50;;;;;;5034735;28;20349;-70
2022/04/28 04:46:06;;;;;;;;;;;16.90;90.60;;;;;;5016512;28;19910;-71
2022/04/28 04:48:31;;;;;;;;;;;16.90;90.50;;;;;;5033982;28;19987;-70
2022/04/28 04:50:57;;;;;;;;;;;17.00;90.60;;;;;;5033852;28;19909;-71
2022/04/28 04:53:23;;;;;;;;;;;17.00;90.30;;;;;;5033700;28;19952;-69
2022/04/28 04:55:49;;;;;;;;;;;17.00;90.30;;;;;;5033654;28;19937;-70
2022/04/28 04:58:15;;;;;;;;;;;16.90;90.30;;;;;;5033818;28;20351;-69
2022/04/28 05:00:41;;;;;;;;;;;16.90;90.30;;;;;;5033787;28;20219;-70
2022/04/28 05:03:06;;;;;;;;;;;16.80;90.40;;;;;;5034724;28;19944;-69
2022/04/28 05:05:32;;;;;;;;;;;16.80;89.60;;;;;;5016394;28;20004;-70
2022/04/28 05:07:58;;;;;;;;;;;16.80;88.30;;;;;;5015947;28;19924;-70
2022/04/28 05:10:24;;;;;;;;;;;16.90;88.10;;;;;;5033397;28;19913;-70
2022/04/28 05:12:50;;;;;;;;;;;16.80;88.00;;;;;;5015526;28;19909;-69
2022/04/28 05:15:15;;;;;;;;;;;16.70;87.60;;;;;;5033263;28;20329;-69
2022/04/28 05:17:41;;;;;;;;;;;16.80;87.20;;;;;;5034200;28;20273;-70
2022/04/28 05:20:07;;;;;;;;;;;16.80;87.20;;;;;;5034069;28;19913;-70
2022/04/28 05:22:34;;;;;;;;;;;16.80;86.70;;;;;;5034099;28;19913;-70
2022/04/28 05:24:59;;;;;;;;;;;16.90;86.80;;;;;;5034352;28;19909;-71
2022/04/28 05:27:25;;;;;;;;;;;17.00;86.70;;;;;;5034345;28;19913;-70
2022/04/28 05:29:51;;;;;;;;;;;17.10;86.20;;;;;;5033630;28;19914;-74
2022/04/28 05:32:17;;;;;;;;;;;17.10;86.10;;;;;;5033230;28;19964;-71
2022/04/28 05:34:43;;;;;;;;;;;17.20;86.00;;;;;;5033775;28;20322;-70
2022/04/28 05:37:09;;;;;;;;;;;17.30;83.80;;;;;;5049077;28;19960;-70
2022/04/28 05:39:35;;;;;;;;;;;17.50;83.50;;;;;;5053289;28;19912;-69
2022/04/28 05:42:02;;;;;;;;;;;17.50;83.90;;;;;;5053094;28;20280;-70
2022/04/28 05:47:13;;;;;;;;;;;17.60;84.80;;;;;;5052503;28;19962;-71
2022/04/28 05:49:39;;;;;;;;;;;17.70;84.40;;;;;;5051919;28;19909;-70
2022/04/28 05:52:04;;;;;;;;;;;17.80;84.30;;;;;;5051499;28;20051;-71
2022/04/28 05:54:30;;;;;;;;;;;17.90;84.20;;;;;;5051860;28;19908;-69
2022/04/28 05:56:56;;;;;;;;;;;17.80;84.20;;;;;;5051720;28;19920;-71
2022/04/28 05:59:22;;;;;;;;;;;17.80;83.70;;;;;;5050871;28;19920;-72
2022/04/28 06:01:49;;;;;;;;;;;17.90;83.60;;;;;;5050983;28;19908;-71
2022/04/28 06:04:14;;;;;;;;;;;17.90;83.60;;;;;;5051665;28;20361;-69
2022/04/28 06:06:40;;;;;;;;;;;18.00;83.70;;;;;;5051442;28;19935;-71
2022/04/28 06:09:06;;;;;;;;;;;18.00;83.70;;;;;;5051709;28;19925;-71
2022/04/28 06:11:32;;;;;;;;;;;18.10;84.00;;;;;;5051534;28;19916;-71
2022/04/28 06:13:58;;;;;;;;;;;18.20;83.40;;;;;;5051641;28;19909;-72
2022/04/28 06:16:24;;;;;;;;;;;18.30;82.50;;;;;;5050327;28;19909;-71
2022/04/28 06:18:49;;;;;;;;;;;18.30;82.30;;;;;;5037619;28;19932;-72
2022/04/28 06:21:15;;;;;;;;;;;18.40;81.70;;;;;;5033064;28;20266;-70
2022/04/28 06:23:41;;;;;;;;;;;18.50;80.80;;;;;;5032320;28;19927;-72
2022/04/28 06:26:07;;;;;;;;;;;18.60;80.30;;;;;;5032248;28;20392;-71
2022/04/28 06:28:33;;;;;;;;;;;18.70;80.00;;;;;;5032378;28;19917;-71
2022/04/28 06:30:59;;;;;;;;;;;18.80;79.70;;;;;;5032119;28;20380;-73
2022/04/28 06:33:25;;;;;;;;;;;18.90;79.90;;;;;;5032902;28;19913;-71
2022/04/28 06:35:50;;;;;;;;;;;18.80;80.90;;;;;;5032038;28;19917;-70
2022/04/28 06:38:16;;;;;;;;;;;18.80;80.30;;;;;;5031791;28;19995;-70
2022/04/28 06:40:42;;;;;;;;;;;18.70;81.40;;;;;;5032015;28;19995;-70
2022/04/28 06:43:08;;;;;;;;;;;18.70;81.90;;;;;;5031904;28;20273;-69
2022/04/28 06:45:34;;;;;;;;;;;18.60;82.60;;;;;;5032071;28;19909;-70
2022/04/28 06:48:01;;;;;;;;;;;18.50;82.20;;;;;;5034366;28;20031;-69
2022/04/28 06:50:27;;;;;;;;;;;18.60;81.90;;;;;;5036079;28;19913;-71
2022/04/28 06:52:52;;;;;;;;;;;18.90;80.80;;;;;;5035725;28;19960;-71
2022/04/28 06:55:19;;;;;;;;;;;19.50;79.10;;;;;;5017703;28;19909;-70
2022/04/28 06:57:45;;;;;;;;;;;19.80;78.10;;;;;;5035698;28;19919;-70
2022/04/28 07:00:11;;;;;;;;;;;20.10;77.30;;;;;;5035788;28;20015;-70
2022/04/28 07:02:37;;;;;;;;;;;20.40;76.30;;;;;;5035861;28;19909;-71
2022/04/28 07:05:03;;;;;;;;;;;20.40;77.00;;;;;;5035600;28;19921;-70
2022/04/28 07:07:29;;;;;;;;;;;20.70;76.60;;;;;;5035690;28;19914;-71
2022/04/28 07:09:55;;;;;;;;;;;21.10;75.90;;;;;;5035652;28;20041;-72
2022/04/28 07:12:20;;;;;;;;;;;21.60;74.90;;;;;;5035719;28;19916;-71
2022/04/28 07:14:46;;;;;;;;;;;21.60;73.90;;;;;;5035840;28;20361;-71
2022/04/28 07:17:12;;;;;;;;;;;21.70;73.60;;;;;;5036068;28;19909;-71
2022/04/28 07:19:38;;;;;;;;;;;22.00;73.40;;;;;;5036119;28;20372;-71
2022/04/28 07:22:05;;;;;;;;;;;22.30;71.70;;;;;;5045073;28;20062;-72
2022/04/28 07:24:37;;;;;;;;;;;22.40;68.70;;;;;;5055243;28;19909;-71
2022/04/28 07:27:02;;;;;;;;;;;22.20;68.50;;;;;;5055089;28;19932;-72
2022/04/28 07:29:28;;;;;;;;;;;22.60;69.70;;;;;;5055328;28;20288;-71
2022/04/28 07:31:54;;;;;;;;;;;22.60;68.70;;;;;;5054925;28;20058;-71
2022/04/28 07:34:20;;;;;;;;;;;22.70;67.80;;;;;;5055632;28;20352;-72
2022/04/28 07:36:46;;;;;;;;;;;22.60;68.90;;;;;;5054549;28;20266;-71
2022/04/28 07:39:12;;;;;;;;;;;22.70;68.80;;;;;;5055278;28;19909;-71
2022/04/28 07:41:38;;;;;;;;;;;22.50;69.60;;;;;;5054953;28;19955;-71
2022/04/28 07:44:04;;;;;;;;;;;22.30;70.90;;;;;;5054997;28;19913;-71
2022/04/28 07:46:29;;;;;;;;;;;22.30;70.50;;;;;;5054837;28;19908;-72
2022/04/28 07:48:55;;;;;;;;;;;22.10;71.50;;;;;;5054856;28;19920;-71
2022/04/28 07:51:21;;;;;;;;;;;21.90;71.70;;;;;;5054510;28;19909;-71
2022/04/28 07:53:47;;;;;;;;;;;21.70;70.50;;;;;;5054916;28;19909;-72
2022/04/28 07:56:18;;;;;;;;;;;21.70;71.70;;;;;;5054458;28;20451;-71
2022/04/28 07:58:44;;;;;;;;;;;21.70;71.90;;;;;;5053542;28;19944;-71
2022/04/28 08:01:10;;;;;;;;;;;21.70;72.30;;;;;;5054337;28;19962;-70
2022/04/28 08:03:37;;;;;;;;;;;21.60;72.70;;;;;;5052496;28;20425;-69
2022/04/28 08:06:03;;;;;;;;;;;21.60;69.50;;;;;;5054204;28;19967;-71
2022/04/28 08:08:29;;;;;;;;;;;21.60;72.90;;;;;;5054439;28;19964;-72
2022/04/28 08:10:56;;;;;;;;;;;21.70;69.90;;;;;;5053827;28;19923;-70
2022/04/28 08:13:21;;;;;;;;;;;21.70;70.30;;;;;;5053686;28;19909;-73
2022/04/28 08:15:47;;;;;;;;;;;22.00;68.50;;;;;;5053680;28;19909;-69
2022/04/28 08:18:13;;;;;;;;;;;22.00;67.10;;;;;;5054188;28;19909;-71
2022/04/28 08:20:40;;;;;;;;;;;22.10;65.50;;;;;;5054005;28;19909;-70
2022/04/28 08:23:06;;;;;;;;;;;22.10;64.50;;;;;;5054063;28;19948;-68
2022/04/28 08:25:31;;;;;;;;;;;22.10;65.40;;;;;;5054162;28;20396;-71
2022/04/28 08:27:57;;;;;;;;;;;22.10;65.30;;;;;;5054057;28;19936;-70
2022/04/28 08:30:23;;;;;;;;;;;22.20;63.60;;;;;;5054361;28;19935;-71
2022/04/28 08:32:49;;;;;;;;;;;22.20;63.40;;;;;;5054145;28;19916;-70
2022/04/28 08:35:15;;;;;;;;;;;22.10;63.20;;;;;;5053121;28;19909;-69
2022/04/28 08:37:40;;;;;;;;;;;22.00;62.50;;;;;;5053837;28;19952;-71
2022/04/28 08:40:07;;;;;;;;;;;21.90;62.30;;;;;;5053700;28;20019;-69
2022/04/28 08:42:36;;;;;;;;;;;22.00;63.20;;;;;;5053551;28;20349;-70
2022/04/28 08:45:02;;;;;;;;;;;22.10;62.80;;;;;;5053495;28;19987;-68
2022/04/28 08:47:28;;;;;;;;;;;22.10;61.70;;;;;;5053368;28;19920;-70
2022/04/28 08:49:54;;;;;;;;;;;22.20;62.60;;;;;;5053076;28;19916;-70
2022/04/28 08:52:20;;;;;;;;;;;22.20;62.80;;;;;;5052823;28;19948;-70
2022/04/28 08:54:46;;;;;;;;;;;22.20;63.00;;;;;;5035104;28;19959;-70
2022/04/28 08:57:13;;;;;;;;;;;22.20;64.40;;;;;;5053008;28;19909;-70
2022/04/28 08:59:39;;;;;;;;;;;22.40;63.00;;;;;;5052403;28;19920;-70
2022/04/28 09:02:05;;;;;;;;;;;22.50;63.00;;;;;;5052604;28;19984;-72
2022/04/28 09:04:31;;;;;;;;;;;22.50;62.40;;;;;;5052510;28;19908;-71
2022/04/28 09:06:58;;;;;;;;;;;22.50;63.00;;;;;;5052564;28;19915;-71
2022/04/28 09:09:24;;;;;;;;;;;22.70;62.80;;;;;;5052525;28;20368;-72
2022/04/28 09:11:50;;;;;;;;;;;22.80;61.20;;;;;;5051655;28;19940;-72
2022/04/28 09:14:23;;;;;;;;;;;22.90;63.10;;;;;;5052479;28;20357;-72
2022/04/28 09:16:57;;;;;;;;;;;23.10;61.30;;;;;;5052239;28;19909;-72
2022/04/28 09:19:25;;;;;;;;;;;23.30;59.40;;;;;;5052249;28;20011;-67
2022/04/28 09:22:01;;;;;;;;;;;23.30;59.20;;;;;;5052761;28;19931;-71
2022/04/28 09:24:28;;;;;;;;;;;23.40;59.40;;;;;;5051795;28;19932;-71
2022/04/28 09:26:55;;;;;;;;;;;23.50;59.00;;;;;;5051963;28;19909;-71
2022/04/28 09:29:22;;;;;;;;;;;23.40;59.30;;;;;;5052376;28;20018;-72
2022/04/28 09:31:49;;;;;;;;;;;23.40;59.50;;;;;;5051921;28;20230;-71
2022/04/28 09:34:15;;;;;;;;;;;23.60;59.00;;;;;;5052158;28;19909;-72
2022/04/28 09:36:42;;;;;;;;;;;23.90;59.10;;;;;;5030851;28;19928;-69
2022/04/28 09:39:09;;;;;;;;;;;24.20;58.50;;;;;;5032338;28;19909;-72
2022/04/28 09:44:23;;;;;;;;;;;24.70;58.40;;;;;;5032147;28;19916;-72
2022/04/28 09:46:49;;;;;;;;;;;24.80;58.10;;;;;;5032072;28;19917;-71
2022/04/28 09:49:20;;;;;;;;;;;24.80;57.30;;;;;;5031737;28;19936;-73
2022/04/28 09:51:57;;;;;;;;;;;24.70;57.40;;;;;;5031847;28;19925;-72
2022/04/28 09:54:25;;;;;;;;;;;24.40;56.80;;;;;;5025581;28;19917;-71
2022/04/28 09:56:51;;;;;;;;;;;24.40;57.80;;;;;;5012690;28;19913;-71
2022/04/28 09:59:17;;;;;;;;;;;24.30;57.50;;;;;;5013280;28;19916;-68
2022/04/28 10:01:44;;;;;;;;;;;24.20;57.30;;;;;;5030224;28;19913;-72
2022/04/28 10:04:10;;;;;;;;;;;24.10;57.50;;;;;;5031913;28;19909;-71
2022/04/28 10:06:36;;;;;;;;;;;23.80;58.30;;;;;;5031522;28;19920;-71
2022/04/28 10:09:03;;;;;;;;;;;23.60;58.70;;;;;;5031356;28;19917;-72
2022/04/28 10:11:30;;;;;;;;;;;23.70;58.90;;;;;;5031387;28;19937;-71
2022/04/28 10:13:56;;;;;;;;;;;24.00;58.10;;;;;;5028542;28;20325;-70
2022/04/28 10:16:23;;;;;;;;;;;24.00;57.50;;;;;;5020020;28;19922;-70
2022/04/28 10:18:52;;;;;;;;;;;24.10;57.00;;;;;;5022130;28;19917;-69
2022/04/28 10:21:21;;;;;;;;;;;24.20;57.50;;;;;;5030585;28;19909;-71
2022/04/28 10:32:35;;;;;;;;;;;24.40;56.70;;;;;;5035782;28;19939;-72
2022/04/28 10:35:02;;;;;;;;;;;24.20;57.60;;;;;;5035898;28;19909;-72
2022/04/28 10:37:32;;;;;;;;;;;24.60;57.40;;;;;;5035214;28;19979;-73
2022/04/28 10:39:58;;;;;;;;;;;24.90;56.90;;;;;;5035823;28;19909;-71
2022/04/28 10:42:27;;;;;;;;;;;25.20;57.60;;;;;;5035713;28;19924;-71
2022/04/28 10:45:18;;;;;;;;;;;24.70;56.90;;;;;;5035385;28;19921;-70
2022/04/28 10:47:43;;;;;;;;;;;24.50;57.60;;;;;;5035295;28;19983;-71
2022/04/28 10:50:25;;;;;;;;;;;24.70;57.50;;;;;;5035243;28;19909;-70
2022/04/28 10:53:00;;;;;;;;;;;25.10;56.80;;;;;;5035514;28;19909;-72
2022/04/28 10:55:33;;;;;;;;;;;25.00;56.50;;;;;;5031998;28;19918;-72
2022/04/28 10:58:18;;;;;;;;;;;25.10;55.90;;;;;;5015722;28;19913;-73
2022/04/28 11:01:21;;;;;;;;;;;25.40;56.10;;;;;;5013744;28;19909;-71
2022/04/28 11:03:52;;;;;;;;;;;25.50;55.20;;;;;;5012925;28;20280;-71
2022/04/28 11:06:18;;;;;;;;;;;25.30;54.80;;;;;;5015325;28;20409;-72
2022/04/28 11:08:45;;;;;;;;;;;25.40;55.90;;;;;;5015559;28;20243;-72
2022/04/28 11:11:12;;;;;;;;;;;25.80;55.20;;;;;;5014756;28;19916;-72
2022/04/28 11:13:40;;;;;;;;;;;25.80;54.50;;;;;;5014631;28;19961;-71
2022/04/28 11:16:07;;;;;;;;;;;26.00;54.20;;;;;;5014855;28;19913;-71
2022/04/28 11:18:33;;;;;;;;;;;26.10;54.10;;;;;;5014845;28;19960;-72
2022/04/28 11:21:01;;;;;;;;;;;26.00;54.00;;;;;;5014647;28;19909;-72
2022/04/28 11:23:37;;;;;;;;;;;26.10;53.40;;;;;;5015075;28;19910;-72
2022/04/28 11:26:03;;;;;;;;;;;26.60;52.90;;;;;;5014426;28;19932;-71
2022/04/28 11:28:30;;;;;;;;;;;26.60;52.60;;;;;;5032879;28;20365;-72
2022/04/28 11:30:58;;;;;;;;;;;26.00;52.60;;;;;;5035057;28;19913;-71
2022/04/28 11:33:23;;;;;;;;;;;25.50;53.10;;;;;;5034153;28;19952;-69
2022/04/28 11:35:49;;;;;;;;;;;25.60;53.80;;;;;;5041378;28;19924;-72
2022/04/28 11:38:25;;;;;;;;;;;25.60;54.70;;;;;;5054388;28;19913;-72
2022/04/28 11:40:58;;;;;;;;;;;26.30;53.60;;;;;;5054987;28;19951;-71
2022/04/28 11:43:27;;;;;;;;;;;26.60;53.60;;;;;;5054835;28;19920;-71
2022/04/28 11:45:53;;;;;;;;;;;26.70;53.80;;;;;;5054700;28;19913;-70
2022/04/28 11:48:22;;;;;;;;;;;26.60;52.10;;;;;;5054651;28;20379;-67
2022/04/28 11:50:48;;;;;;;;;;;26.70;52.80;;;;;;5054462;28;19913;-71
2022/04/28 11:53:14;;;;;;;;;;;26.60;53.70;;;;;;5054652;28;20300;-70
2022/04/28 11:55:40;;;;;;;;;;;26.40;52.80;;;;;;5054485;28;20003;-71
2022/04/28 11:58:07;;;;;;;;;;;26.00;53.30;;;;;;5053502;28;19913;-69
2022/04/28 12:00:37;;;;;;;;;;;26.10;52.70;;;;;;5052984;28;19920;-71
2022/04/28 12:03:03;;;;;;;;;;;26.20;53.50;;;;;;5046536;28;19924;-71
2022/04/28 12:05:32;;;;;;;;;;;26.40;53.20;;;;;;5043498;28;19922;-70
2022/04/28 12:07:58;;;;;;;;;;;26.40;53.50;;;;;;5044767;28;19916;-72
2022/04/28 12:16:00;;;;;;;;;;;26.40;52.60;;;;;;5034757;28;20246;-71
2022/04/28 12:21:18;;;;;;;;;;;26.80;60.80;;;;;;5035245;28;20539;-71
2022/04/28 12:23:50;;;;;;;;;;;27.10;61.10;;;;;;5033564;28;19952;-70
2022/04/28 12:26:19;;;;;;;;;;;27.20;61.30;;;;;;5035188;28;19913;-68
2022/04/28 12:28:46;;;;;;;;;;;27.30;56.70;;;;;;5054977;28;19987;-68
2022/04/28 12:31:13;;;;;;;;;;;27.50;58.00;;;;;;5054621;28;19955;-71
2022/04/28 12:33:39;;;;;;;;;;;27.40;59.90;;;;;;5048447;28;19913;-71
2022/04/28 12:36:11;;;;;;;;;;;27.30;60.60;;;;;;5054282;28;19947;-70
2022/04/28 12:38:43;;;;;;;;;;;27.20;61.00;;;;;;5053830;28;19916;-71
2022/04/28 12:41:14;;;;;;;;;;;27.40;61.60;;;;;;5052186;28;19909;-70
2022/04/28 12:43:48;;;;;;;;;;;27.50;60.60;;;;;;5052887;28;19909;-71
2022/04/28 12:46:15;;;;;;;;;;;27.30;60.50;;;;;;5054191;28;19948;-70
2022/04/28 12:48:41;;;;;;;;;;;27.40;61.60;;;;;;5054167;28;19917;-72
2022/04/28 12:51:08;;;;;;;;;;;27.60;61.50;;;;;;5053729;28;19920;-69
2022/04/28 12:53:37;;;;;;;;;;;27.50;62.10;;;;;;5035488;28;20520;-69
2022/04/28 12:56:03;;;;;;;;;;;27.20;61.80;;;;;;5054167;28;19909;-69
2022/04/28 12:58:29;;;;;;;;;;;27.00;62.00;;;;;;5053712;28;19909;-71
2022/04/28 13:00:55;;;;;;;;;;;26.90;62.90;;;;;;5053718;28;19988;-71
2022/04/28 13:03:28;;;;;;;;;;;26.30;63.50;;;;;;5053955;28;19909;-70
2022/04/28 13:06:31;;;;;;;;;;;26.10;64.60;;;;;;5053605;28;19913;-70
2022/04/28 13:08:58;;;;;;;;;;;25.80;65.60;;;;;;5054264;28;20352;-70
2022/04/28 13:11:25;;;;;;;;;;;25.50;66.40;;;;;;5053819;28;19916;-70
2022/04/28 13:13:52;;;;;;;;;;;25.20;68.30;;;;;;5054235;28;19908;-70
2022/04/28 13:16:18;;;;;;;;;;;25.00;69.80;;;;;;5035881;28;19913;-70
2022/04/28 13:18:45;;;;;;;;;;;25.00;71.20;;;;;;5054396;28;20004;-70
2022/04/28 13:21:13;;;;;;;;;;;24.80;72.30;;;;;;5035938;28;19908;-71
2022/04/28 13:23:40;;;;;;;;;;;24.80;72.80;;;;;;5053976;28;19909;-71
2022/04/28 13:26:06;;;;;;;;;;;24.80;74.10;;;;;;5054093;28;20276;-70
2022/04/28 13:28:32;;;;;;;;;;;24.50;74.90;;;;;;5053829;28;19917;-71
2022/04/28 13:30:58;;;;;;;;;;;24.30;75.80;;;;;;5036228;28;20307;-70
2022/04/28 13:33:24;;;;;;;;;;;24.10;76.40;;;;;;5054202;28;19909;-71
2022/04/28 13:35:50;;;;;;;;;;;24.20;76.50;;;;;;5052258;28;19924;-71
2022/04/28 13:38:16;;;;;;;;;;;24.30;76.70;;;;;;5053555;28;19967;-71
2022/04/28 13:40:42;;;;;;;;;;;24.10;77.00;;;;;;5053989;28;20285;-72
2022/04/28 13:43:08;;;;;;;;;;;24.20;77.80;;;;;;5054076;28;19954;-71
2022/04/28 13:45:34;;;;;;;;;;;24.30;77.20;;;;;;5048157;28;19995;-71
2022/04/28 13:48:00;;;;;;;;;;;24.40;77.20;;;;;;5053352;28;19932;-70
2022/04/28 13:50:26;;;;;;;;;;;24.50;76.90;;;;;;5052866;28;20047;-69
2022/04/28 13:52:52;;;;;;;;;;;24.40;76.80;;;;;;5051529;28;19920;-71
2022/04/28 13:55:18;;;;;;;;;;;24.40;76.80;;;;;;5052870;28;19916;-71
2022/04/28 13:57:44;;;;;;;;;;;24.20;77.20;;;;;;5050887;28;19979;-71
2022/04/28 14:00:11;;;;;;;;;;;23.80;77.50;;;;;;5053482;28;19992;-69
2022/04/28 14:02:37;;;;;;;;;;;23.60;78.20;;;;;;5051778;28;19947;-69
2022/04/28 14:05:03;;;;;;;;;;;23.60;78.00;;;;;;5052520;28;19909;-71
2022/04/28 14:07:28;;;;;;;;;;;23.60;78.00;;;;;;5035150;28;19925;-71
2022/04/28 14:09:55;;;;;;;;;;;23.30;78.40;;;;;;5053397;28;20280;-70
2022/04/28 14:12:21;;;;;;;;;;;23.20;78.90;;;;;;5052620;28;20345;-70
2022/04/28 14:14:47;;;;;;;;;;;23.40;78.20;;;;;;5052680;28;20284;-70
2022/04/28 14:17:13;;;;;;;;;;;23.60;77.50;;;;;;5052928;28;19916;-70
2022/04/28 14:19:38;;;;;;;;;;;23.70;77.50;;;;;;5053009;28;19909;-71
2022/04/28 14:22:04;;;;;;;;;;;23.60;77.40;;;;;;5052695;28;19909;-70
2022/04/28 14:24:30;;;;;;;;;;;23.70;77.40;;;;;;5052949;28;19909;-70
2022/04/28 14:26:56;;;;;;;;;;;23.80;77.30;;;;;;5053024;28;19936;-67
2022/04/28 14:29:22;;;;;;;;;;;23.80;77.10;;;;;;5052498;28;20003;-70
2022/04/28 14:31:48;;;;;;;;;;;23.90;77.00;;;;;;5052643;28;20357;-70
2022/04/28 14:34:15;;;;;;;;;;;24.00;77.00;;;;;;5052318;28;19918;-70
2022/04/28 14:36:41;;;;;;;;;;;24.10;76.40;;;;;;5051857;28;19921;-70
2022/04/28 14:39:07;;;;;;;;;;;24.10;76.30;;;;;;5033994;28;20257;-70
2022/04/28 14:41:33;;;;;;;;;;;24.00;76.10;;;;;;5052537;28;20367;-70
2022/04/28 14:44:02;;;;;;;;;;;24.10;76.40;;;;;;5052339;28;19948;-71
2022/04/28 14:46:27;;;;;;;;;;;24.00;75.70;;;;;;5047859;28;19917;-71
2022/04/28 14:54:22;;;;;;;;;;;23.60;75.40;;;;;;5042238;28;19982;-71
2022/04/28 14:56:47;;;;;;;;;;;23.60;76.20;;;;;;5029994;28;20012;-72